Terminal Aerodrome Forecast
Issued by NWS Greer, SC

Home | Current Version | Previous Version | Text Only | Print | Product List | Glossary On
Versions: 1 2 3 4 5 6 7 8 9 10 11 12 13 14 15 16 17 18 19 20 21
000
FTUS42 KGSP 261413 AAC
TAFGSP
TAF AMD
KGSP 261413Z 2614/2712 35004KT P6SM SCT020 OVC120
     FM261600 30007KT P6SM SCT150
     FM262000 24005KT P6SM SCT060
     FM270900 24007KT P6SM SCT200=

USA.gov is the U.S. government's official web portal to all federal, state and local government web resources and services.